EIN266 EIDW-EGBB
Flight info
| Callsign | EIN266 |
|---|---|
| Flight time | 0h 38m |
| Altitude | 23000 |
| Route | DEXEN4E DEXEN Y124 DOLOP |
| Aircraft | A320/M-SDE3FGHIRWY/LB1 |
Departure
| Time | 2026-05-04 08:02 |
|---|---|
| Airport | Dublin Airport (EIDW) |
Arrival
| Time | 2026-05-04 08:40 |
|---|---|
| Airport | Birmingham Airport (EGBB) |
| Time | Latitude | Longitude | Altitude | Speed | Heading |
|---|---|---|---|---|---|
| 2026-05-04 07:40 | 53.42295 | -6.24609 | 225 ft | 0 kts | 135° |
| 2026-05-04 07:51 | 53.42305 | -6.24626 | 200 ft | 4 kts | 135° |
| 2026-05-04 07:52 | 53.42323 | -6.24659 | 234 ft | 4 kts | 135° |
| 2026-05-04 07:52 | 53.42344 | -6.24687 | 226 ft | 4 kts | 147° |
| 2026-05-04 07:52 | 53.42367 | -6.24707 | 227 ft | 2 kts | 156° |
| 2026-05-04 07:52 | 53.42372 | -6.24711 | 226 ft | 0 kts | 155° |
| 2026-05-04 07:54 | 53.42367 | -6.24725 | 226 ft | 7 kts | 236° |
| 2026-05-04 07:55 | 53.42366 | -6.24745 | 225 ft | 0 kts | 266° |
| 2026-05-04 07:55 | 53.42365 | -6.24757 | 227 ft | 6 kts | 262° |
| 2026-05-04 07:55 | 53.42403 | -6.24887 | 225 ft | 16 kts | 332° |
| 2026-05-04 07:56 | 53.42511 | -6.24971 | 225 ft | 17 kts | 336° |
| 2026-05-04 07:56 | 53.42623 | -6.25051 | 225 ft | 18 kts | 337° |
| 2026-05-04 07:56 | 53.42727 | -6.25133 | 225 ft | 13 kts | 310° |
| 2026-05-04 07:56 | 53.42705 | -6.25211 | 225 ft | 7 kts | 231° |
| 2026-05-04 07:57 | 53.42647 | -6.25315 | 226 ft | 20 kts | 224° |
| 2026-05-04 07:57 | 53.42544 | -6.25491 | 225 ft | 21 kts | 226° |
| 2026-05-04 07:57 | 53.42439 | -6.25669 | 225 ft | 22 kts | 225° |
| 2026-05-04 07:57 | 53.42333 | -6.25851 | 225 ft | 22 kts | 225° |
| 2026-05-04 07:58 | 53.42260 | -6.26052 | 225 ft | 20 kts | 259° |
| 2026-05-04 07:58 | 53.42267 | -6.26301 | 225 ft | 25 kts | 275° |
| 2026-05-04 07:58 | 53.42286 | -6.26633 | 225 ft | 29 kts | 276° |
| 2026-05-04 07:58 | 53.42307 | -6.26975 | 225 ft | 29 kts | 274° |
| 2026-05-04 07:59 | 53.42324 | -6.27316 | 226 ft | 29 kts | 275° |
| 2026-05-04 07:59 | 53.42341 | -6.27651 | 225 ft | 28 kts | 275° |
| 2026-05-04 07:59 | 53.42359 | -6.27963 | 225 ft | 26 kts | 276° |
| 2026-05-04 07:59 | 53.42378 | -6.28275 | 225 ft | 27 kts | 275° |
| 2026-05-04 08:00 | 53.42394 | -6.28596 | 225 ft | 28 kts | 275° |
| 2026-05-04 08:00 | 53.42411 | -6.28911 | 225 ft | 20 kts | 274° |
| 2026-05-04 08:00 | 53.42359 | -6.29059 | 226 ft | 15 kts | 197° |
| 2026-05-04 08:02 | 53.41812 | -6.20875 | 1818 ft | 179 kts | 92° |
| 2026-05-04 08:02 | 53.41692 | -6.18657 | 2114 ft | 204 kts | 92° |
| 2026-05-04 08:02 | 53.41557 | -6.16187 | 2497 ft | 227 kts | 92° |
| 2026-05-04 08:03 | 53.41402 | -6.13417 | 2983 ft | 248 kts | 93° |
| 2026-05-04 08:03 | 53.41234 | -6.10492 | 3763 ft | 256 kts | 93° |
| 2026-05-04 08:03 | 53.41062 | -6.07496 | 4651 ft | 260 kts | 93° |
| 2026-05-04 08:03 | 53.40857 | -6.04459 | 5527 ft | 266 kts | 100° |
| 2026-05-04 08:04 | 53.40099 | -6.01595 | 6394 ft | 274 kts | 120° |
| 2026-05-04 08:04 | 53.38946 | -5.99013 | 7219 ft | 280 kts | 128° |
| 2026-05-04 08:04 | 53.37650 | -5.96552 | 8067 ft | 283 kts | 130° |
| 2026-05-04 08:04 | 53.36316 | -5.94106 | 8912 ft | 286 kts | 130° |
| 2026-05-04 08:05 | 53.34980 | -5.91619 | 9775 ft | 288 kts | 131° |
| 2026-05-04 08:05 | 53.33646 | -5.89055 | 10359 ft | 301 kts | 128° |
| 2026-05-04 08:05 | 53.32448 | -5.86042 | 10576 ft | 323 kts | 116° |
| 2026-05-04 08:05 | 53.31617 | -5.82455 | 11002 ft | 336 kts | 104° |
| 2026-05-04 08:06 | 53.31167 | -5.78594 | 11672 ft | 341 kts | 98° |
| 2026-05-04 08:06 | 53.30750 | -5.74670 | 12393 ft | 345 kts | 98° |
| 2026-05-04 08:06 | 53.30322 | -5.70702 | 13119 ft | 349 kts | 99° |
| 2026-05-04 08:06 | 53.29884 | -5.66686 | 13831 ft | 353 kts | 98° |
| 2026-05-04 08:08 | 53.27671 | -5.37151 | 17595 ft | 389 kts | 91° |
| 2026-05-04 08:08 | 53.27547 | -5.32625 | 18231 ft | 391 kts | 92° |
| 2026-05-04 08:10 | 53.26364 | -4.95344 | 22254 ft | 410 kts | 91° |
| 2026-05-04 08:11 | 53.26200 | -4.90573 | 22714 ft | 412 kts | 91° |
| 2026-05-04 08:11 | 53.25863 | -4.80997 | 22999 ft | 424 kts | 91° |
| 2026-05-04 08:11 | 53.25686 | -4.76033 | 22996 ft | 431 kts | 91° |
| 2026-05-04 08:12 | 53.25511 | -4.71023 | 22990 ft | 433 kts | 91° |
| 2026-05-04 08:12 | 53.25341 | -4.65992 | 22984 ft | 434 kts | 91° |
| 2026-05-04 08:12 | 53.25174 | -4.60969 | 22976 ft | 434 kts | 91° |
| 2026-05-04 08:12 | 53.25007 | -4.55929 | 22978 ft | 434 kts | 91° |
| 2026-05-04 08:13 | 53.24836 | -4.50898 | 22985 ft | 434 kts | 91° |
| 2026-05-04 08:13 | 53.24659 | -4.45865 | 22985 ft | 434 kts | 91° |
| 2026-05-04 08:13 | 53.24477 | -4.40830 | 22984 ft | 434 kts | 91° |
| 2026-05-04 08:13 | 53.24294 | -4.35793 | 22977 ft | 434 kts | 91° |
| 2026-05-04 08:14 | 53.24114 | -4.30760 | 22985 ft | 434 kts | 91° |
| 2026-05-04 08:14 | 53.23934 | -4.25726 | 22981 ft | 434 kts | 91° |
| 2026-05-04 08:14 | 53.23751 | -4.20685 | 22984 ft | 434 kts | 92° |
| 2026-05-04 08:16 | 53.22395 | -3.86100 | 22978 ft | 435 kts | 92° |
| 2026-05-04 08:16 | 53.22180 | -3.81015 | 22978 ft | 435 kts | 92° |
| 2026-05-04 08:16 | 53.21963 | -3.75918 | 22979 ft | 435 kts | 92° |
| 2026-05-04 08:17 | 53.21753 | -3.70945 | 22980 ft | 435 kts | 92° |
| 2026-05-04 08:17 | 53.21537 | -3.65906 | 22983 ft | 435 kts | 92° |
| 2026-05-04 08:17 | 53.21321 | -3.60871 | 22984 ft | 435 kts | 92° |
| 2026-05-04 08:17 | 53.21104 | -3.55835 | 22987 ft | 436 kts | 93° |
| 2026-05-04 08:19 | 53.19105 | -3.20645 | 22986 ft | 438 kts | 105° |
| 2026-05-04 08:19 | 53.18014 | -3.15895 | 22985 ft | 439 kts | 114° |
| 2026-05-04 08:20 | 53.16489 | -3.11473 | 22987 ft | 441 kts | 121° |
| 2026-05-04 08:20 | 53.14846 | -3.07166 | 22954 ft | 442 kts | 121° |
| 2026-05-04 08:20 | 53.13205 | -3.02860 | 22480 ft | 438 kts | 121° |
| 2026-05-04 08:20 | 53.11583 | -2.98597 | 21721 ft | 433 kts | 121° |
| 2026-05-04 08:21 | 53.09982 | -2.94392 | 21035 ft | 428 kts | 121° |
| 2026-05-04 08:21 | 53.08395 | -2.90229 | 20354 ft | 424 kts | 122° |
| 2026-05-04 08:21 | 53.06789 | -2.86132 | 19717 ft | 422 kts | 123° |
| 2026-05-04 08:21 | 53.05098 | -2.82141 | 19222 ft | 422 kts | 125° |
| 2026-05-04 08:22 | 53.03347 | -2.78227 | 18685 ft | 420 kts | 127° |
| 2026-05-04 08:22 | 53.01580 | -2.74377 | 18121 ft | 418 kts | 127° |
| 2026-05-04 08:24 | 52.89667 | -2.48032 | 14474 ft | 401 kts | 127° |
| 2026-05-04 08:24 | 52.88003 | -2.44333 | 13964 ft | 400 kts | 127° |
| 2026-05-04 08:24 | 52.86348 | -2.40661 | 13416 ft | 397 kts | 127° |
| 2026-05-04 08:24 | 52.84695 | -2.37005 | 12915 ft | 396 kts | 127° |
| 2026-05-04 08:25 | 52.83050 | -2.33369 | 12411 ft | 393 kts | 127° |
| 2026-05-04 08:25 | 52.81406 | -2.29782 | 11912 ft | 389 kts | 128° |
| 2026-05-04 08:25 | 52.79701 | -2.26324 | 11418 ft | 388 kts | 130° |
| 2026-05-04 08:25 | 52.77955 | -2.22994 | 11106 ft | 376 kts | 132° |
| 2026-05-04 08:26 | 52.76259 | -2.19849 | 10982 ft | 359 kts | 132° |
| 2026-05-04 08:27 | 52.66168 | -2.00898 | 10081 ft | 276 kts | 131° |
| 2026-05-04 08:28 | 52.64929 | -1.98547 | 9857 ft | 270 kts | 132° |
| 2026-05-04 08:28 | 52.63706 | -1.96233 | 9575 ft | 266 kts | 131° |
| 2026-05-04 08:28 | 52.62495 | -1.93948 | 9296 ft | 262 kts | 132° |
| 2026-05-04 08:28 | 52.61258 | -1.91790 | 9029 ft | 256 kts | 141° |
| 2026-05-04 08:29 | 52.59804 | -1.90138 | 8722 ft | 252 kts | 150° |
| 2026-05-04 08:29 | 52.58328 | -1.88610 | 8417 ft | 249 kts | 149° |
| 2026-05-04 08:29 | 52.56873 | -1.87097 | 8122 ft | 246 kts | 150° |
| 2026-05-04 08:31 | 52.46950 | -1.76796 | 6024 ft | 239 kts | 148° |
| 2026-05-04 08:33 | 52.35725 | -1.72335 | 3981 ft | 260 kts | 168° |
| 2026-05-04 08:33 | 52.33941 | -1.71803 | 3663 ft | 259 kts | 169° |
| 2026-05-04 08:35 | 52.31075 | -1.61113 | 2845 ft | 209 kts | 15° |
| 2026-05-04 08:35 | 52.32486 | -1.61017 | 2740 ft | 201 kts | 350° |
| 2026-05-04 08:35 | 52.33746 | -1.61906 | 2653 ft | 198 kts | 328° |
| 2026-05-04 08:35 | 52.34873 | -1.63157 | 2579 ft | 192 kts | 329° |
| 2026-05-04 08:37 | 52.40877 | -1.69802 | 1313 ft | 152 kts | 330° |
| 2026-05-04 08:37 | 52.41725 | -1.70740 | 1075 ft | 143 kts | 329° |
| 2026-05-04 08:37 | 52.42534 | -1.71624 | 865 ft | 137 kts | 329° |
| 2026-05-04 08:38 | 52.43322 | -1.72510 | 688 ft | 136 kts | 329° |
| 2026-05-04 08:38 | 52.44096 | -1.73381 | 482 ft | 135 kts | 329° |
| 2026-05-04 08:38 | 52.44868 | -1.74225 | 335 ft | 131 kts | 329° |
| 2026-05-04 08:40 | 52.46075 | -1.75238 | 320 ft | 20 kts | 145° |
| 2026-05-04 08:40 | 52.45958 | -1.75108 | 321 ft | 20 kts | 146° |
| 2026-05-04 08:40 | 52.45843 | -1.74979 | 322 ft | 20 kts | 144° |
| 2026-05-04 08:41 | 52.45733 | -1.74859 | 324 ft | 18 kts | 146° |
| 2026-05-04 08:41 | 52.45631 | -1.74748 | 325 ft | 17 kts | 145° |
| 2026-05-04 08:41 | 52.45541 | -1.74645 | 326 ft | 15 kts | 145° |
| 2026-05-04 08:41 | 52.45463 | -1.74532 | 326 ft | 16 kts | 120° |
| 2026-05-04 08:42 | 52.45413 | -1.74373 | 328 ft | 15 kts | 116° |
| 2026-05-04 08:42 | 52.45358 | -1.74243 | 327 ft | 13 kts | 147° |
| 2026-05-04 08:42 | 52.45271 | -1.74148 | 328 ft | 18 kts | 145° |
| 2026-05-04 08:42 | 52.45169 | -1.74035 | 326 ft | 17 kts | 146° |
| 2026-05-04 08:43 | 52.45078 | -1.73934 | 330 ft | 15 kts | 145° |
| 2026-05-04 08:43 | 52.45049 | -1.73808 | 331 ft | 13 kts | 59° |
| 2026-05-04 08:43 | 52.45109 | -1.73700 | 330 ft | 13 kts | 52° |
| 2026-05-04 08:43 | 52.45173 | -1.73686 | 331 ft | 7 kts | 327° |
| 2026-05-04 08:44 | 52.45202 | -1.73719 | 330 ft | 2 kts | 326° |
| 2026-05-04 08:44 | 52.45208 | -1.73726 | 330 ft | 0 kts | 326° |